createdAt,value
2023-05-06T00:00:22.581Z,993.28
2023-05-06T00:01:22.490Z,993.28
2023-05-06T00:02:22.570Z,993.27
2023-05-06T00:03:22.669Z,993.30
2023-05-06T00:04:22.470Z,993.26
2023-05-06T00:05:22.514Z,993.27
2023-05-06T00:06:22.509Z,993.29
2023-05-06T00:07:22.444Z,993.24
2023-05-06T00:08:22.413Z,993.25
2023-05-06T00:09:22.425Z,993.19
2023-05-06T00:10:22.426Z,993.25
2023-05-06T00:11:22.405Z,993.23
2023-05-06T00:12:22.411Z,993.27
2023-05-06T00:13:22.463Z,993.25
2023-05-06T00:14:22.393Z,993.23
2023-05-06T00:15:22.380Z,993.24
2023-05-06T00:16:22.419Z,993.17
2023-05-06T00:17:22.317Z,993.21
2023-05-06T00:18:22.375Z,993.19
2023-05-06T00:19:22.383Z,993.19
2023-05-06T00:20:22.370Z,993.14
2023-05-06T00:21:22.418Z,993.11
2023-05-06T00:22:22.297Z,993.19
2023-05-06T00:23:22.291Z,993.21
2023-05-06T00:24:22.343Z,993.12
2023-05-06T00:25:22.323Z,993.21
2023-05-06T00:26:22.261Z,993.15
2023-05-06T00:27:22.313Z,993.11
2023-05-06T00:28:22.247Z,993.15
2023-05-06T00:29:22.320Z,993.16
2023-05-06T00:30:22.272Z,993.18
2023-05-06T00:31:22.342Z,993.19
2023-05-06T00:32:22.229Z,993.18
2023-05-06T00:33:22.210Z,993.16
2023-05-06T00:34:22.201Z,993.14
2023-05-06T00:35:22.342Z,993.19
2023-05-06T00:36:22.236Z,993.12
2023-05-06T00:37:22.188Z,993.12
2023-05-06T00:38:22.181Z,993.10
2023-05-06T00:39:22.280Z,993.14
2023-05-06T00:40:22.171Z,993.11
2023-05-06T00:41:22.163Z,993.09
2023-05-06T00:42:22.213Z,993.14
2023-05-06T00:43:22.164Z,993.17
2023-05-06T00:44:22.170Z,993.14
2023-05-06T00:45:22.122Z,993.12
2023-05-06T00:46:22.183Z,993.09
2023-05-06T00:47:22.089Z,993.12
2023-05-06T00:48:22.178Z,993.16
2023-05-06T00:49:22.108Z,993.17
2023-05-06T00:50:22.149Z,993.18
2023-05-06T00:51:22.159Z,993.16
2023-05-06T00:52:22.055Z,993.20
2023-05-06T00:53:22.134Z,993.19
2023-05-06T00:54:22.102Z,993.21
2023-05-06T00:55:22.081Z,993.17
2023-05-06T00:56:22.056Z,993.18
2023-05-06T00:57:22.063Z,993.18
2023-05-06T00:58:22.058Z,993.18
2023-05-06T00:59:22.067Z,993.17
2023-05-06T01:00:22.036Z,993.20
2023-05-06T01:01:22.075Z,993.18
2023-05-06T01:02:23.421Z,993.12
2023-05-06T01:03:22.138Z,993.12
2023-05-06T01:04:21.990Z,993.16
2023-05-06T01:05:22.041Z,993.15
2023-05-06T01:06:22.829Z,993.11
2023-05-06T01:07:21.970Z,993.17
2023-05-06T01:08:22.025Z,993.14
2023-05-06T01:09:22.126Z,993.21
2023-05-06T01:10:22.002Z,993.17
2023-05-06T01:11:23.034Z,993.10
2023-05-06T01:12:22.004Z,993.14
2023-05-06T01:13:21.978Z,993.14
2023-05-06T01:14:21.915Z,993.13
2023-05-06T01:15:21.945Z,993.11
